Time;durP1;ratioP1;P1;durP2;ratioP2;P2;SDS_P1;SDS_P2;PMS_P1;PMS_P2;Temp;Humidity;BMP_temperature;BMP_pressure;BME280_temperature;BME280_humidity;BME280_pressure;Samples;Min_cycle;Max_cycle;Signal;HPM_P1;HPM_P2
2021/10/03 02:13:21;;;;;;;0.68;0.60;;;13.90;99.90;;;13.07;100.00;98919.19;4100328;29;20976;-72
2021/10/03 02:15:22;;;;;;;1.42;0.80;;;13.80;99.90;;;13.14;100.00;98922.59;4117330;28;20556;-72
2021/10/03 02:17:23;;;;;;;1.10;0.60;;;13.80;99.90;;;13.08;100.00;98904.13;4118289;28;20035;-72
2021/10/03 02:19:25;;;;;;;0.80;0.63;;;13.70;99.90;;;13.03;100.00;98925.91;4118096;28;20061;-72
2021/10/03 02:21:28;;;;;;;3.42;0.80;;;13.70;99.90;;;12.96;100.00;98959.56;4116958;28;20062;-72
2021/10/03 02:23:30;;;;;;;1.95;0.90;;;13.60;99.90;;;12.83;100.00;98951.72;4133233;28;20054;-72
2021/10/03 02:25:32;;;;;;;0.70;0.63;;;13.60;99.90;;;12.93;100.00;98941.44;4118040;28;20023;-72
2021/10/03 02:27:33;;;;;;;1.17;0.70;;;13.60;99.90;;;12.78;100.00;98931.19;4132915;28;20034;-72
2021/10/03 02:29:34;;;;;;;1.83;0.70;;;13.50;99.90;;;12.85;100.00;98935.63;4116707;28;20030;-72
2021/10/03 02:31:36;;;;;;;2.03;0.80;;;13.50;99.90;;;12.89;100.00;98948.22;4118031;28;20490;-72
2021/10/03 02:33:40;;;;;;;1.30;0.75;;;13.50;99.90;;;12.74;100.00;98963.59;4116900;28;20560;-72
2021/10/03 02:35:43;;;;;;;1.45;0.70;;;13.50;99.90;;;12.74;100.00;98976.81;4116646;28;20109;-72
2021/10/03 02:37:44;;;;;;;1.70;0.80;;;13.40;99.90;;;12.72;100.00;98987.59;4116682;28;20030;-72
2021/10/03 02:39:45;;;;;;;0.93;0.60;;;13.40;99.90;;;12.73;100.00;98983.13;4116816;28;20529;-72
2021/10/03 02:41:46;;;;;;;2.45;0.60;;;13.40;99.90;;;12.78;100.00;98980.66;4117789;28;20110;-72
2021/10/03 02:43:56;;;;;;;1.60;0.70;;;13.40;99.90;;;12.84;100.00;98969.22;4117776;28;20095;-72
2021/10/03 02:45:59;;;;;;;4.03;0.80;;;13.40;99.90;;;12.84;100.00;98973.72;4116485;28;20069;-72
2021/10/03 02:48:01;;;;;;;2.30;0.90;;;13.40;99.90;;;12.73;100.00;98970.72;4116672;28;20083;-72
2021/10/03 02:50:04;;;;;;;1.58;0.63;;;13.30;99.90;;;12.82;100.00;98960.69;4106610;28;20057;-72
2021/10/03 02:52:06;;;;;;;2.10;0.80;;;13.30;99.90;;;12.78;100.00;98968.22;4116500;28;20504;-72
2021/10/03 02:54:07;;;;;;;1.10;0.70;;;13.30;99.90;;;12.68;100.00;98998.81;4116522;28;20031;-72
2021/10/03 02:56:08;;;;;;;0.68;0.60;;;13.40;99.90;;;12.78;100.00;98997.31;4116573;28;20513;-72
2021/10/03 02:58:09;;;;;;;0.60;0.50;;;13.30;99.90;;;12.78;100.00;99004.47;4117682;28;20113;-72
2021/10/03 03:00:11;;;;;;;0.60;0.52;;;13.30;99.90;;;12.66;100.00;99006.16;4116637;28;20027;-72
2021/10/03 03:02:12;;;;;;;1.08;0.60;;;13.30;99.90;;;12.61;100.00;99029.78;4117696;28;20034;-72
2021/10/03 03:04:13;;;;;;;1.85;1.38;;;13.30;99.90;;;12.68;100.00;99035.88;4116287;28;20394;-72
2021/10/03 03:06:15;;;;;;;3.95;1.33;;;13.30;99.90;;;12.74;100.00;99035.84;4116515;28;20027;-72
2021/10/03 03:08:16;;;;;;;1.73;0.70;;;13.30;99.90;;;12.76;100.00;99051.47;4116420;28;20065;-72
2021/10/03 03:10:17;;;;;;;0.70;0.70;;;13.30;99.90;;;12.83;100.00;99046.97;4115282;28;20027;-72
2021/10/03 03:12:18;;;;;;;1.65;0.80;;;13.30;99.90;;;12.80;100.00;99052.69;4117644;28;20023;-72
2021/10/03 03:14:19;;;;;;;0.57;0.50;;;13.30;99.90;;;12.75;100.00;99057.81;4116214;28;20042;-72
2021/10/03 03:16:20;;;;;;;2.22;1.00;;;13.30;99.90;;;12.49;100.00;99057.91;4117564;28;20613;-72
2021/10/03 03:18:22;;;;;;;1.58;0.60;;;13.20;99.90;;;12.57;100.00;99047.91;4116332;28;20039;-72
2021/10/03 03:20:23;;;;;;;0.65;0.60;;;13.20;99.90;;;12.66;100.00;99051.94;4116115;28;20023;-72
2021/10/03 03:22:25;;;;;;;1.05;0.60;;;13.20;99.90;;;12.64;100.00;99061.91;4116348;28;20045;-72
2021/10/03 03:24:26;;;;;;;2.28;0.85;;;13.20;99.90;;;12.62;100.00;99063.16;4117488;28;20058;-72
2021/10/03 03:26:27;;;;;;;1.52;0.80;;;13.20;99.90;;;12.51;100.00;99069.09;4116339;28;20035;-72
2021/10/03 03:28:28;;;;;;;0.60;0.60;;;13.10;99.90;;;12.67;100.00;99085.31;4116312;28;20027;-72
2021/10/03 03:30:29;;;;;;;0.63;0.63;;;13.10;99.90;;;12.68;100.00;99089.59;4117373;28;20043;-72
2021/10/03 03:32:30;;;;;;;1.75;0.70;;;13.20;99.90;;;12.51;100.00;99082.34;4117332;28;20035;-72
2021/10/03 03:34:31;;;;;;;0.93;0.88;;;13.10;99.90;;;12.48;100.00;99093.31;4117007;28;20135;-72
2021/10/03 03:36:32;;;;;;;1.00;0.88;;;13.10;99.90;;;12.53;100.00;99083.75;4100213;28;20066;-72
2021/10/03 03:38:35;;;;;;;2.33;0.88;;;13.10;99.90;;;12.51;100.00;99061.19;4117344;28;20023;-72
2021/10/03 03:40:37;;;;;;;1.23;0.73;;;13.00;99.90;;;12.52;100.00;99060.13;4132130;28;20030;-72
2021/10/03 03:42:39;;;;;;;0.75;0.68;;;13.10;99.90;;;12.46;100.00;99059.13;4117133;28;20044;-72
2021/10/03 03:44:40;;;;;;;3.30;0.73;;;13.10;99.90;;;12.52;100.00;99073.34;4116121;28;20077;-72
2021/10/03 03:46:41;;;;;;;1.48;0.60;;;13.00;99.90;;;12.46;100.00;99074.19;4117298;28;20030;-72
2021/10/03 03:48:42;;;;;;;1.27;1.10;;;13.10;99.90;;;12.41;100.00;99092.53;4117177;28;20019;-72
2021/10/03 03:50:43;;;;;;;1.75;0.85;;;13.00;99.90;;;12.32;100.00;99091.13;4099519;29;20020;-72
2021/10/03 03:52:44;;;;;;;1.55;0.60;;;13.00;99.90;;;12.34;100.00;99095.19;4106303;28;20110;-72
2021/10/03 03:54:46;;;;;;;2.10;0.70;;;13.00;99.90;;;12.41;100.00;99089.88;4116038;28;20514;-72
2021/10/03 03:56:47;;;;;;;1.05;0.75;;;13.00;99.90;;;12.43;100.00;99071.97;4116139;28;20022;-72
2021/10/03 03:58:48;;;;;;;2.15;0.85;;;13.00;99.90;;;12.55;100.00;99070.28;4131778;28;20026;-72
2021/10/03 04:00:49;;;;;;;1.08;0.90;;;13.00;99.90;;;12.63;100.00;99088.59;4115949;28;20041;-72
2021/10/03 04:02:50;;;;;;;1.10;0.75;;;13.10;99.90;;;12.60;100.00;99073.16;4117163;28;20023;-72
2021/10/03 04:04:51;;;;;;;0.98;0.60;;;13.10;99.90;;;12.69;100.00;99082.47;4116905;28;20509;-72
2021/10/03 04:06:52;;;;;;;2.15;0.80;;;13.10;99.90;;;12.68;100.00;99088.78;4117005;28;20038;-72
2021/10/03 04:08:53;;;;;;;3.47;0.75;;;13.10;99.90;;;12.66;100.00;99110.13;4117146;28;20039;-72
2021/10/03 04:10:54;;;;;;;0.93;0.80;;;13.20;99.90;;;12.53;100.00;99133.19;4117036;28;20455;-72
2021/10/03 04:12:55;;;;;;;1.38;0.80;;;13.10;99.90;;;12.49;100.00;99155.75;4115853;28;20505;-72
2021/10/03 04:14:56;;;;;;;0.75;0.65;;;13.00;99.90;;;12.53;100.00;99162.28;4147842;28;20091;-72
2021/10/03 04:16:57;;;;;;;2.75;0.90;;;13.10;99.90;;;12.63;100.00;99157.38;4115975;28;20038;-72
2021/10/03 04:18:58;;;;;;;0.90;0.75;;;13.10;99.90;;;12.72;100.00;99150.84;4115884;28;20053;-72
2021/10/03 04:20:59;;;;;;;1.85;0.70;;;13.10;99.90;;;12.82;100.00;99145.91;4115616;28;20035;-72
2021/10/03 04:23:00;;;;;;;0.60;0.60;;;13.20;99.90;;;12.80;100.00;99134.72;4118310;28;20536;-72
2021/10/03 04:25:01;;;;;;;1.77;0.88;;;13.20;99.90;;;12.78;100.00;99129.63;4118560;28;20120;-72
2021/10/03 04:27:02;;;;;;;3.47;0.80;;;13.20;99.90;;;12.67;100.00;99118.88;4134631;28;20084;-72
2021/10/03 04:29:04;;;;;;;1.42;0.90;;;13.20;99.90;;;12.54;100.00;99148.03;4118480;28;20034;-72
2021/10/03 04:31:05;;;;;;;1.08;0.75;;;13.10;99.90;;;12.62;100.00;99151.28;4118319;28;20489;-72
2021/10/03 04:33:05;;;;;;;1.00;0.75;;;13.10;99.90;;;12.74;100.00;99154.09;4118652;28;20034;-72
2021/10/03 04:35:07;;;;;;;2.28;0.90;;;13.20;99.90;;;12.75;100.00;99151.22;4119400;28;20505;-72
2021/10/03 04:37:08;;;;;;;2.20;1.50;;;13.20;99.90;;;12.75;100.00;99171.59;4119681;28;20084;-72
2021/10/03 04:39:09;;;;;;;1.25;0.85;;;13.20;99.90;;;12.89;100.00;99196.16;4118366;28;20026;-72
2021/10/03 04:41:10;;;;;;;2.95;1.88;;;13.20;99.90;;;12.76;100.00;99221.63;4119584;28;20031;-72
2021/10/03 04:43:11;;;;;;;4.13;0.85;;;13.30;99.90;;;12.67;100.00;99240.56;4119503;28;20038;-72
2021/10/03 04:45:12;;;;;;;3.15;1.58;;;13.30;99.90;;;12.74;100.00;99255.44;4119454;28;20583;-72
2021/10/03 04:47:14;;;;;;;1.27;0.80;;;13.20;99.90;;;12.75;100.00;99267.63;4119506;28;20026;-72
2021/10/03 04:49:15;;;;;;;2.88;0.70;;;13.30;99.90;;;12.72;100.00;99291.06;4117903;28;20092;-72
2021/10/03 04:51:16;;;;;;;3.30;0.82;;;13.20;99.90;;;12.68;100.00;99295.13;4150398;28;20102;-72
2021/10/03 04:53:17;;;;;;;1.73;1.17;;;13.20;99.90;;;12.64;100.00;99292.06;4118264;28;20034;-72
2021/10/03 04:55:17;;;;;;;2.75;1.00;;;13.20;99.90;;;12.78;100.00;99300.84;4118185;28;20015;-72
2021/10/03 04:57:19;;;;;;;0.80;0.70;;;13.20;99.90;;;12.85;100.00;99304.25;4118053;28;20517;-72
2021/10/03 04:59:20;;;;;;;1.98;0.80;;;13.30;99.90;;;12.94;100.00;99307.50;4134186;28;20065;-72
2021/10/03 05:01:21;;;;;;;1.67;0.80;;;13.30;99.90;;;12.83;100.00;99311.59;4118122;28;20402;-72
2021/10/03 05:03:21;;;;;;;4.53;1.55;;;13.30;99.90;;;12.73;100.00;99306.72;4150345;28;20105;-72
2021/10/03 05:05:23;;;;;;;1.38;0.88;;;13.30;99.90;;;12.69;100.00;99299.41;4118878;28;20062;-72
2021/10/03 05:07:24;;;;;;;1.85;1.05;;;13.30;99.90;;;12.76;100.00;99289.63;4118081;28;20034;-72
2021/10/03 05:09:25;;;;;;;2.15;0.80;;;13.30;99.90;;;12.74;100.00;99291.66;4118132;28;20038;-72
2021/10/03 05:11:26;;;;;;;2.15;0.80;;;13.30;99.90;;;12.76;100.00;99290.44;4118998;28;20027;-72
2021/10/03 05:13:27;;;;;;;4.28;0.90;;;13.30;99.90;;;12.82;100.00;99299.38;4117705;28;20137;-72
2021/10/03 05:15:28;;;;;;;3.25;0.98;;;13.30;99.90;;;12.84;100.00;99281.50;4133913;28;20528;-72
2021/10/03 05:17:30;;;;;;;1.63;0.80;;;13.30;99.90;;;12.80;100.00;99295.31;4119173;28;20034;-72
2021/10/03 05:19:31;;;;;;;2.58;0.77;;;13.40;99.90;;;12.74;100.00;99294.31;4118939;28;20026;-72
2021/10/03 05:21:32;;;;;;;2.28;1.13;;;13.40;99.90;;;12.66;100.00;99299.81;4117775;28;20034;-72
2021/10/03 05:23:34;;;;;;;1.88;0.80;;;13.40;99.90;;;12.60;100.00;99319.16;4117920;28;20037;-72
2021/10/03 05:25:35;;;;;;;2.00;1.00;;;13.30;99.90;;;12.44;100.00;99320.38;4117854;28;20030;-72
2021/10/03 05:27:36;;;;;;;2.55;0.88;;;13.20;99.90;;;12.36;100.00;99331.16;4119046;28;20360;-72
2021/10/03 05:29:37;;;;;;;1.85;0.70;;;13.20;99.90;;;12.22;100.00;99332.13;4117725;28;20041;-72
2021/10/03 05:31:38;;;;;;;1.80;0.80;;;13.00;99.90;;;12.27;100.00;99340.28;4119004;28;20106;-72
2021/10/03 05:33:39;;;;;;;1.25;0.70;;;13.00;99.90;;;12.23;100.00;99341.69;4116748;28;20023;-72
2021/10/03 05:35:40;;;;;;;2.13;0.73;;;12.90;99.90;;;12.17;100.00;99343.31;4149684;28;20026;-72
2021/10/03 05:37:41;;;;;;;1.20;0.80;;;12.90;99.90;;;12.23;100.00;99346.16;4118729;28;20027;-72
2021/10/03 05:39:42;;;;;;;1.45;0.80;;;12.90;99.90;;;12.25;100.00;99352.88;4118856;28;20027;-72
2021/10/03 05:41:43;;;;;;;1.60;0.90;;;12.80;99.90;;;12.12;100.00;99342.28;4118603;28;20038;-72
2021/10/03 05:43:43;;;;;;;1.48;0.75;;;12.80;99.90;;;11.99;100.00;99339.59;4118643;28;20065;-72
2021/10/03 05:45:45;;;;;;;1.35;0.85;;;12.70;99.90;;;11.96;100.00;99338.16;4118473;28;20031;-72
2021/10/03 05:47:46;;;;;;;2.25;0.80;;;12.60;99.90;;;12.02;100.00;99342.66;4117458;28;20031;-72
2021/10/03 05:49:47;;;;;;;1.73;0.70;;;12.60;99.90;;;11.94;100.00;99356.06;4118211;28;20035;-71
2021/10/03 05:51:48;;;;;;;2.25;0.60;;;12.60;99.90;;;11.86;100.00;99350.94;4117213;28;20151;-72
2021/10/03 05:53:49;;;;;;;1.48;0.70;;;12.60;99.90;;;12.00;100.00;99372.94;4117286;28;20704;-72
2021/10/03 05:55:50;;;;;;;1.35;1.05;;;12.60;99.90;;;12.01;100.00;99388.59;4118773;28;20030;-72
2021/10/03 05:57:51;;;;;;;1.48;0.70;;;12.50;99.90;;;11.89;100.00;99369.03;4118435;28;20031;-72
2021/10/03 05:59:51;;;;;;;0.73;0.63;;;12.50;99.90;;;11.85;100.00;99375.75;4133270;28;20096;-72
2021/10/03 06:01:52;;;;;;;1.73;1.15;;;12.50;99.90;;;11.82;100.00;99383.25;4118292;28;20080;-72
2021/10/03 06:03:53;;;;;;;1.33;0.80;;;12.50;99.90;;;11.84;100.00;99395.25;4118138;28;20027;-72
2021/10/03 06:05:54;;;;;;;3.00;0.95;;;12.50;99.90;;;11.85;100.00;99410.09;4118000;28;20038;-72
2021/10/03 06:07:55;;;;;;;2.83;1.23;;;12.50;99.90;;;11.81;100.00;99415.94;4117061;28;20031;-72
2021/10/03 06:09:56;;;;;;;1.40;0.65;;;12.40;99.90;;;11.82;100.00;99415.75;4133261;28;20034;-72
2021/10/03 06:11:57;;;;;;;2.78;0.75;;;12.40;99.90;;;11.89;100.00;99416.59;4116954;28;20026;-72
2021/10/03 06:13:58;;;;;;;1.95;0.68;;;12.50;99.90;;;11.89;100.00;99410.47;4116845;28;20046;-72
2021/10/03 06:15:59;;;;;;;2.63;0.80;;;12.50;99.90;;;11.88;100.00;99407.06;4117007;28;20567;-72
2021/10/03 06:18:00;;;;;;;1.73;0.80;;;12.50;99.90;;;11.86;100.00;99424.09;4116538;28;20133;-72
2021/10/03 06:20:02;;;;;;;2.95;1.02;;;12.40;99.90;;;11.80;100.00;99425.69;4104983;28;20023;-72
2021/10/03 06:22:03;;;;;;;1.83;0.77;;;12.40;99.90;;;11.82;100.00;99428.97;4116973;28;20441;-72
2021/10/03 06:24:04;;;;;;;3.63;0.90;;;12.40;99.90;;;11.81;100.00;99424.69;4116941;28;20101;-72
2021/10/03 06:26:05;;;;;;;2.03;0.90;;;12.40;99.90;;;11.80;100.00;99443.41;4116822;28;20038;-72
2021/10/03 06:28:06;;;;;;;2.72;0.93;;;12.40;99.90;;;11.79;100.00;99454.97;4117982;28;20034;-72
2021/10/03 06:30:08;;;;;;;2.63;0.90;;;12.40;99.90;;;11.76;100.00;99477.31;4116819;28;20035;-72
2021/10/03 06:32:09;;;;;;;2.58;1.42;;;12.40;99.90;;;11.79;100.00;99482.22;4116770;28;20019;-72
2021/10/03 06:34:11;;;;;;;2.95;0.80;;;12.40;99.90;;;11.86;100.00;99484.88;4116597;28;20476;-72
2021/10/03 06:36:12;;;;;;;2.60;1.08;;;12.40;99.90;;;11.83;100.00;99496.63;4117662;28;20438;-72
2021/10/03 06:38:13;;;;;;;1.58;0.70;;;12.40;99.90;;;11.88;100.00;99519.84;4116731;28;20027;-72
2021/10/03 06:40:15;;;;;;;1.88;0.77;;;12.40;99.90;;;11.83;100.00;99525.69;4117916;28;20101;-72
2021/10/03 06:42:16;;;;;;;3.17;0.95;;;12.40;99.90;;;11.87;100.00;99542.00;4100770;28;20066;-72
2021/10/03 06:44:17;;;;;;;1.13;0.60;;;12.40;99.90;;;11.97;100.00;99564.44;4117486;28;20078;-72
2021/10/03 06:46:19;;;;;;;1.63;1.00;;;12.40;99.90;;;11.95;100.00;99574.38;4117814;28;20022;-72
2021/10/03 06:48:19;;;;;;;3.90;0.80;;;12.50;99.90;;;11.97;100.00;99579.47;4116508;28;20105;-72
2021/10/03 06:50:20;;;;;;;1.50;1.20;;;12.50;99.90;;;11.93;100.00;99580.84;4100521;28;20031;-72
2021/10/03 06:52:21;;;;;;;4.47;1.10;;;12.50;99.90;;;11.92;100.00;99587.97;4132572;28;20026;-72
2021/10/03 06:54:22;;;;;;;1.48;0.70;;;12.50;99.90;;;12.01;100.00;99596.56;4132693;28;20061;-72
2021/10/03 06:56:23;;;;;;;2.20;0.80;;;12.50;99.90;;;12.04;100.00;99601.47;4110187;28;20034;-72
2021/10/03 06:58:24;;;;;;;2.67;0.82;;;12.50;99.90;;;12.00;100.00;99603.69;4117638;28;20071;-72
2021/10/03 07:00:25;;;;;;;3.08;1.10;;;12.60;99.90;;;12.05;100.00;99613.69;4100219;28;20081;-72
2021/10/03 07:02:28;;;;;;;2.97;1.00;;;12.60;99.90;;;12.08;100.00;99626.50;4117670;28;20490;-72
2021/10/03 07:04:31;;;;;;;3.03;0.98;;;12.60;99.90;;;12.13;100.00;99632.84;4116226;28;20031;-72
2021/10/03 07:06:32;;;;;;;2.55;1.23;;;12.70;99.90;;;12.15;100.00;99635.31;4116555;28;20023;-72
2021/10/03 07:08:33;;;;;;;1.63;0.90;;;12.60;99.90;;;12.13;100.00;99656.63;4116387;28;20038;-72
2021/10/03 07:10:34;;;;;;;2.13;0.85;;;12.70;99.90;;;12.21;100.00;99658.34;4116390;28;20529;-72
2021/10/03 07:12:35;;;;;;;2.65;1.15;;;12.70;99.90;;;12.32;100.00;99673.66;4117635;28;20116;-72
2021/10/03 07:14:36;;;;;;;1.60;1.15;;;12.70;99.90;;;12.06;100.00;99678.75;4117404;28;20070;-72
2021/10/03 07:16:37;;;;;;;2.33;0.90;;;12.70;99.90;;;12.08;100.00;99696.06;4117403;28;20038;-72
2021/10/03 07:18:38;;;;;;;4.65;0.80;;;12.70;99.90;;;12.03;100.00;99703.75;4117622;28;20027;-72
2021/10/03 07:20:40;;;;;;;2.78;1.30;;;12.60;99.90;;;12.02;100.00;99715.31;4117336;28;20110;-72
2021/10/03 07:22:41;;;;;;;2.13;0.90;;;12.60;99.90;;;12.06;100.00;99713.13;4117489;28;20037;-72
2021/10/03 07:24:42;;;;;;;6.20;1.10;;;12.60;99.90;;;12.05;100.00;99708.84;4117328;28;20069;-72
2021/10/03 07:26:43;;;;;;;2.58;0.73;;;12.60;99.90;;;12.06;100.00;99713.94;4117472;28;20081;-72
2021/10/03 07:28:44;;;;;;;3.75;0.90;;;12.60;99.90;;;12.08;100.00;99726.97;4116104;28;20114;-72
2021/10/03 07:30:45;;;;;;;2.40;0.98;;;12.60;99.90;;;12.05;100.00;99728.16;4117334;28;20474;-72
2021/10/03 07:32:46;;;;;;;2.85;1.00;;;12.60;99.90;;;12.15;100.00;99733.94;4116130;28;20027;-72
2021/10/03 07:34:47;;;;;;;1.55;1.00;;;12.60;99.90;;;12.14;100.00;99723.56;4117269;28;20034;-71
2021/10/03 07:36:48;;;;;;;3.15;1.67;;;12.70;99.90;;;12.27;100.00;99718.38;4115675;28;20057;-71
2021/10/03 07:38:49;;;;;;;3.13;1.15;;;12.70;99.90;;;12.26;100.00;99727.31;4117213;28;20030;-71
2021/10/03 07:40:50;;;;;;;3.17;1.27;;;12.70;99.90;;;12.25;100.00;99730.97;4117190;28;20118;-72
2021/10/03 07:42:51;;;;;;;2.25;1.15;;;12.80;99.90;;;12.25;100.00;99743.34;4116183;28;20117;-71
2021/10/03 07:44:52;;;;;;;2.47;1.27;;;12.90;99.90;;;12.32;100.00;99757.47;4117237;28;20038;-71
2021/10/03 07:46:53;;;;;;;2.15;1.10;;;12.90;99.90;;;12.44;100.00;99758.56;4116087;28;20068;-71
2021/10/03 07:48:54;;;;;;;1.50;1.13;;;13.00;99.90;;;12.48;100.00;99752.72;4131538;28;20057;-72
2021/10/03 07:50:56;;;;;;;3.70;1.70;;;13.10;99.90;;;12.52;100.00;99766.38;4116002;28;20110;-72
2021/10/03 07:52:57;;;;;;;2.28;1.48;;;13.20;99.90;;;12.57;100.00;99772.72;4116009;28;20394;-72
2021/10/03 07:54:57;;;;;;;3.88;1.52;;;13.30;99.90;;;12.64;100.00;99780.69;4116013;28;20109;-71
2021/10/03 07:56:58;;;;;;;4.75;1.60;;;13.30;99.90;;;12.68;100.00;99797.84;4133209;28;20026;-71
2021/10/03 07:58:59;;;;;;;2.67;1.50;;;13.30;99.90;;;12.69;100.00;99805.56;4118806;28;20034;-72
2021/10/03 08:01:00;;;;;;;1.75;1.48;;;13.30;99.90;;;12.75;100.00;99819.88;4119048;28;20170;-72
2021/10/03 08:03:02;;;;;;;3.42;1.58;;;13.30;99.90;;;12.77;100.00;99825.78;4121759;28;20049;-72
2021/10/03 08:05:05;;;;;;;1.35;1.00;;;13.20;99.90;;;12.71;100.00;99837.97;4119669;28;20030;-72
2021/10/03 08:07:06;;;;;;;4.80;1.20;;;13.30;99.90;;;12.70;100.00;99841.63;4120367;28;20023;-72
2021/10/03 08:09:07;;;;;;;4.40;1.30;;;13.20;99.90;;;12.71;100.00;99845.91;4120117;28;20463;-72
2021/10/03 08:11:09;;;;;;;3.53;1.10;;;13.30;99.90;;;12.91;100.00;99869.03;4121287;28;20035;-72
2021/10/03 08:13:13;;;;;;;2.88;1.23;;;13.30;99.90;;;13.04;100.00;99874.44;4119850;28;20027;-72
2021/10/03 08:15:15;;;;;;;;;;;13.40;99.90;;;12.78;100.00;99878.50;4151946;28;20063;-72
2021/10/03 08:17:16;;;;;;;2.25;1.65;;;13.50;99.90;;;12.82;100.00;99894.00;4135870;28;19921;-72
2021/10/03 08:19:17;;;;;;;4.50;1.48;;;13.50;99.90;;;12.78;100.00;99888.31;4120148;28;20075;-72
2021/10/03 08:21:18;;;;;;;2.15;1.30;;;13.30;99.90;;;12.77;100.00;99902.53;4119537;28;20019;-72
2021/10/03 08:23:20;;;;;;;2.33;1.40;;;13.30;99.90;;;12.76;100.00;99909.66;4118013;28;20037;-72
2021/10/03 08:25:21;;;;;;;3.35;1.40;;;13.30;99.90;;;12.80;100.00;99915.38;4118013;28;20062;-72
2021/10/03 08:27:21;;;;;;;2.33;1.17;;;13.30;99.90;;;12.81;100.00;99927.63;4101513;28;20031;-72
2021/10/03 08:29:22;;;;;;;3.15;0.90;;;13.20;99.90;;;12.75;100.00;99931.03;4119478;28;20023;-72
2021/10/03 08:31:24;;;;;;;2.88;1.00;;;13.20;99.90;;;12.59;100.00;99939.22;4118100;28;20434;-72
2021/10/03 08:33:25;;;;;;;2.03;1.00;;;13.10;99.90;;;12.61;100.00;99942.47;4118347;28;20088;-72
2021/10/03 08:35:26;;;;;;;3.85;1.42;;;13.10;99.90;;;12.52;100.00;99938.31;4117961;28;20169;-72
2021/10/03 08:37:26;;;;;;;3.00;0.80;;;13.20;99.90;;;12.59;100.00;99949.78;4114764;28;20103;-72
2021/10/03 08:39:27;;;;;;;2.05;1.05;;;13.10;99.90;;;12.67;100.00;99947.00;4114428;28;20167;-71
2021/10/03 08:41:28;;;;;;;2.33;0.85;;;13.10;99.90;;;12.72;100.00;99956.03;4115069;28;20197;-71
2021/10/03 08:43:29;;;;;;;5.32;1.00;;;13.10;99.90;;;12.65;100.00;99967.56;4114833;28;20113;-72
2021/10/03 08:45:30;;;;;;;3.65;0.90;;;13.20;99.90;;;12.71;100.00;99953.56;4113851;28;20156;-72
2021/10/03 08:47:31;;;;;;;2.95;1.00;;;13.30;99.90;;;12.67;100.00;99974.28;4114061;28;20169;-72
2021/10/03 08:49:32;;;;;;;4.00;1.42;;;13.30;99.90;;;12.67;100.00;99978.75;4114541;28;20583;-73
2021/10/03 08:51:33;;;;;;;4.70;0.90;;;13.30;99.90;;;12.78;100.00;99986.22;4116510;28;20121;-73
2021/10/03 08:53:35;;;;;;;4.22;1.58;;;13.30;99.90;;;12.90;100.00;99982.06;4117128;28;20023;-73
2021/10/03 08:55:36;;;;;;;1.38;0.82;;;13.30;99.90;;;12.77;100.00;99980.13;4116715;28;20027;-72
2021/10/03 08:57:38;;;;;;;1.45;0.95;;;13.40;99.90;;;12.81;100.00;99995.63;4114938;28;20023;-72
2021/10/03 09:00:17;;;;;;;2.97;1.40;;;13.40;99.90;;;12.66;100.00;100006.25;4115405;28;20109;-72
2021/10/03 09:02:18;;;;;;;2.63;0.90;;;13.40;99.90;;;12.68;100.00;100010.34;4113741;28;20031;-73
2021/10/03 09:04:38;;;;;;;3.10;1.10;;;13.40;99.90;;;12.75;100.00;100013.06;4114551;28;20090;-72
2021/10/03 09:07:07;;;;;;;2.53;1.10;;;13.50;99.90;;;12.94;100.00;100012.44;4113106;28;20113;-72
2021/10/03 09:09:08;;;;;;;2.20;0.88;;;13.50;99.90;;;12.87;100.00;100011.56;4113786;28;20035;-73
2021/10/03 09:11:10;;;;;;;2.17;0.90;;;13.70;99.90;;;12.95;100.00;100024.66;4113849;28;20120;-73
2021/10/03 09:13:12;;;;;;;2.17;0.77;;;13.60;99.90;;;13.01;100.00;100031.84;4133514;28;20030;-73
2021/10/03 09:15:19;;;;;;;1.90;1.08;;;13.70;99.90;;;13.14;100.00;100032.00;4130072;28;20031;-72
2021/10/03 09:17:22;;;;;;;1.77;0.80;;;13.80;99.90;;;13.17;100.00;100033.47;4130423;28;20023;-73
2021/10/03 09:19:23;;;;;;;2.83;0.75;;;13.80;99.90;;;13.10;100.00;100041.34;4114313;28;20039;-73
2021/10/03 09:21:29;;;;;;;2.67;0.70;;;13.90;99.90;;;13.13;99.32;100048.09;4130221;28;20092;-73
2021/10/03 09:23:30;;;;;;;5.28;0.98;;;13.90;99.90;;;13.14;100.00;100065.63;4115558;28;20031;-73
2021/10/03 09:25:40;;;;;;;4.97;0.80;;;13.90;99.90;;;13.27;99.56;100066.56;4114179;28;20387;-73
2021/10/03 09:27:47;;;;;;;3.17;1.33;;;13.90;99.90;;;13.18;98.33;100078.28;4115085;28;20035;-73
2021/10/03 09:29:48;;;;;;;1.88;0.90;;;14.00;99.90;;;13.30;97.96;100062.72;4114896;28;20121;-72
2021/10/03 09:32:13;;;;;;;2.00;1.25;;;14.00;99.90;;;13.44;98.55;100082.22;4114816;28;20486;-72
2021/10/03 09:34:24;;;;;;;2.28;0.80;;;14.10;99.90;;;13.43;98.22;100084.03;4114507;28;20653;-72
2021/10/03 09:36:33;;;;;;;2.50;1.15;;;14.20;99.90;;;13.43;96.61;100084.03;4113256;28;20076;-72
2021/10/03 09:38:53;;;;;;;1.75;0.80;;;14.20;99.90;;;13.44;97.69;100103.41;4113897;28;20082;-72
2021/10/03 09:41:07;;;;;;;2.05;0.73;;;14.20;99.90;;;13.47;96.77;100097.72;4113149;28;20402;-71
2021/10/03 09:43:09;;;;;;;2.47;1.00;;;14.30;99.90;;;13.39;96.51;100111.91;4113093;28;20053;-73
2021/10/03 09:45:22;;;;;;;1.77;1.02;;;14.30;99.90;;;13.42;93.22;100110.69;4096811;28;20074;-72
2021/10/03 09:47:25;;;;;;;2.83;0.95;;;14.30;99.90;;;13.49;96.19;100127.50;4113462;28;20042;-73
2021/10/03 09:49:26;;;;;;;1.38;0.75;;;14.30;99.90;;;13.53;95.53;100118.16;4097216;28;20034;-73
2021/10/03 09:51:28;;;;;;;3.20;1.10;;;14.30;99.90;;;13.65;95.74;100119.28;4113701;28;20088;-72
2021/10/03 09:53:29;;;;;;;2.53;0.93;;;14.40;99.90;;;13.69;96.57;100124.00;4114111;28;20441;-72
2021/10/03 09:55:30;;;;;;;3.20;1.05;;;14.40;99.90;;;13.79;94.27;100129.81;4152991;28;20021;-72
2021/10/03 09:57:31;;;;;;;1.65;0.73;;;14.50;99.90;;;13.84;92.90;100137.19;4114306;28;20023;-70
2021/10/03 09:59:32;;;;;;;5.88;0.90;;;14.50;99.90;;;13.85;93.50;100149.44;4114353;28;20054;-71
2021/10/03 10:01:38;;;;;;;2.60;0.90;;;14.60;99.90;;;13.89;90.50;100144.56;4113479;28;20034;-72
2021/10/03 10:03:40;;;;;;;2.30;0.82;;;14.70;99.90;;;13.92;93.74;100149.50;4114008;28;20045;-73
2021/10/03 10:05:41;;;;;;;2.97;0.90;;;14.70;99.90;;;14.03;93.29;100156.91;4112288;28;20041;-72
2021/10/03 10:07:43;;;;;;;2.38;0.65;;;14.80;99.90;;;14.10;93.79;100158.59;4097100;28;20119;-72
2021/10/03 10:09:46;;;;;;;1.95;0.70;;;14.90;99.90;;;14.10;91.09;100152.47;4112750;28;20023;-71
2021/10/03 10:12:06;;;;;;;1.42;0.70;;;14.90;99.90;;;14.26;88.74;100163.63;4156858;28;20104;-71
2021/10/03 10:14:09;;;;;;;2.95;0.70;;;15.00;99.90;;;14.13;88.08;100167.97;4111954;28;20043;-72
2021/10/03 10:16:49;;;;;;;5.47;0.80;;;15.00;99.90;;;14.14;88.28;100175.75;4112277;28;20079;-71
2021/10/03 10:18:50;;;;;;;5.95;1.67;;;15.00;99.90;;;14.23;86.85;100166.66;4113139;28;20084;-72
2021/10/03 10:20:53;;;;;;;4.97;1.45;;;15.10;99.90;;;14.23;89.22;100171.97;4112492;28;20541;-72
2021/10/03 10:23:01;;;;;;;2.28;0.75;;;15.10;99.90;;;14.37;89.35;100183.50;4114039;28;20034;-72
2021/10/03 10:25:16;;;;;;;2.33;1.00;;;15.20;99.90;;;14.35;84.71;100178.41;4111542;28;20054;-73
2021/10/03 10:27:29;;;;;;;1.95;0.70;;;15.20;99.90;;;14.40;84.58;100191.91;4112502;28;20703;-72
2021/10/03 10:30:00;;;;;;;3.05;0.90;;;15.30;99.90;;;14.45;83.86;100191.34;4114029;28;20031;-72
2021/10/03 10:32:10;;;;;;;4.55;0.73;;;15.40;99.90;;;14.60;85.04;100202.66;4114326;28;20144;-72
2021/10/03 10:34:11;;;;;;;2.85;1.00;;;15.50;99.90;;;14.64;85.72;100203.06;4096463;28;20031;-72
2021/10/03 10:36:48;;;;;;;4.63;0.77;;;15.50;99.90;;;14.55;80.67;100198.94;4112420;28;20120;-72
2021/10/03 10:39:07;;;;;;;2.92;1.00;;;15.60;99.90;;;14.63;82.74;100207.56;4113764;28;20140;-72
2021/10/03 10:41:46;;;;;;;2.13;0.68;;;15.50;99.90;;;14.55;79.37;100214.84;4114103;28;20029;-72
2021/10/03 10:43:48;;;;;;;5.45;1.48;;;15.50;99.90;;;14.61;80.83;100214.06;4168025;28;20124;-72